Flight Track Log - Related Links

Times and Time Zones

All times are in EDT time to prevent confusion due to time zone crossing. See the SWA565 flight status page for this flight to view local times or setup timezone preferences in your user account.

Time Position Orientation Groundspeed Altitude Reporting Facility
EDT Latitude Longitude Course Direction KTS MPH feet Rate Location/Type
Fri 11:02:46 PM 39.1833 -76.7667 314° West 201 231 3,900  Level Potomac TRACON
Fri 11:03:52 PM 39.2333 -76.8333 314° West 236 272 5,700 2,830 Climbing Potomac TRACON
Fri 11:05:25 PM 39.2558 -76.9586 283° West 241 277 11,400 3,908 Climbing Washington Center
Fri 11:06:24 PM 39.2256 -77.0492 247° West 239 275 15,600 3,150 Climbing Washington Center
Fri 11:07:25 PM 39.1931 -77.1475 247° West 265 305 17,700 2,479 Climbing Washington Center
Fri 11:08:25 PM 39.1644 -77.2567 251° West 290 334 20,600 3,200 Climbing Washington Center
Fri 11:09:25 PM 39.1233 -77.3708 245° Southwest 329 379 24,100 3,076 Climbing Washington Center
Fri 11:10:24 PM 39.0861 -77.4875 248° West 348 400 26,700 1,450 Climbing Washington Center
Fri 11:11:25 PM 39.0444 -77.6122 247° West 353 406 27,000 150 Climbing Washington Center
Fri 11:12:24 PM 39.0114 -77.7153 248° West 347 399 27,000 850 Level Washington Center
Fri 11:13:25 PM 38.9714 -77.8450 248° West 353 406 28,700 1,983 Climbing Washington Center
Fri 11:14:25 PM 38.9317 -77.9639 247° West 359 413 31,000 2,350 Climbing Washington Center
Fri 11:15:25 PM 38.8939 -78.0800 247° West 359 413 33,400 2,200 Climbing Washington Center
Fri 11:16:25 PM 38.8581 -78.1936 248° West 359 413 35,400 1,311 Climbing Washington Center
Fri 11:17:24 PM 38.8514 -78.3158 266° West 342 394 36,000 450 Climbing Washington Center
Fri 11:18:25 PM 38.8483 -78.4411 268° West 348 400 36,300 843 Climbing Washington Center
Fri 11:19:25 PM 38.8475 -78.5664 270° West 348 400 37,700 1,412 Climbing Washington Center
Fri 11:20:24 PM 38.8464 -78.6917 269° West 348 400 39,100 1,150 Climbing Washington Center
Fri 11:21:25 PM 38.8347 -78.8136 263° West 348 400 40,000 446 Climbing Washington Center
Fri 11:22:25 PM 38.8147 -78.9406 259° West 353 406 40,000  Level Washington Center
Fri 11:23:25 PM 38.7967 -79.0597 259° West 353 406 40,000  Level Washington Center
Fri 11:24:25 PM 38.7764 -79.1814 258° West 353 406 40,000  Level Washington Center
Fri 11:25:25 PM 38.7667 -79.2981 264° West 358 412 40,000  Level Washington Center
Fri 11:26:25 PM 38.7436 -79.4300 257° West 358 412 40,000  Level Washington Center
Fri 11:27:25 PM 38.7253 -79.5514 259° West 358 412 40,000  Level Washington Center
Fri 11:28:24 PM 38.7044 -79.6725 258° West 351 404 40,000  Level Washington Center
Fri 11:29:24 PM 38.6861 -79.7833 258° West 351 404 40,000  Level Washington Center
Fri 11:30:25 PM 38.6672 -79.9044 259° West 351 404 40,000  Level Washington Center
Fri 11:31:24 PM 38.6481 -80.0283 259° West 351 404 40,000  Level Washington Center
Fri 11:32:55 PM 38.6164 -80.2064 257° West 356 410 40,000  Level Indianapolis Center
Fri 11:33:56 PM 38.5964 -80.3319 259° West 356 410 40,000  Level Indianapolis Center
Fri 11:34:56 PM 38.5756 -80.4558 258° West 358 412 40,000  Level Indianapolis Center
Fri 11:35:58 PM 38.5553 -80.5800 258° West 357 411 40,000  Level Indianapolis Center
Fri 11:36:58 PM 38.5344 -80.7056 258° West 360 414 40,000  Level Indianapolis Center
Fri 11:37:59 PM 38.5125 -80.8303 257° West 359 413 40,000  Level Indianapolis Center
Fri 11:39:00 PM 38.4919 -80.9553 258° West 358 412 40,000  Level Indianapolis Center
Fri 11:40:01 PM 38.4700 -81.0814 258° West 359 413 40,000  Level Indianapolis Center
Fri 11:41:02 PM 38.4486 -81.2050 258° West 357 411 40,000  Level Indianapolis Center
Fri 11:42:03 PM 38.4219 -81.3553 257° West 358 412 40,000  Level Indianapolis Center
Fri 11:43:04 PM 38.4047 -81.4558 258° West 359 413 40,000  Level Indianapolis Center
Fri 11:44:04 PM 38.3786 -81.6081 258° West 362 417 40,000  Level Indianapolis Center
Fri 11:45:05 PM 38.3567 -81.7322 257° West 359 413 40,000  Level Indianapolis Center
Fri 11:46:06 PM 38.3244 -81.8542 251° West 358 412 40,000  Level Indianapolis Center
Fri 11:47:07 PM 38.2922 -81.9753 251° West 361 415 40,000  Level Indianapolis Center
Fri 11:48:08 PM 38.2581 -82.0972 250° West 364 419 40,000  Level Indianapolis Center
Fri 11:49:08 PM 38.2233 -82.2186 250° West 364 419 40,000  Level Indianapolis Center
Fri 11:50:09 PM 38.1900 -82.3408 251° West 365 420 40,000  Level Indianapolis Center
Fri 11:51:10 PM 38.1547 -82.4614 250° West 366 421 40,000  Level Indianapolis Center
Fri 11:52:10 PM 38.1217 -82.5761 250° West 361 415 40,000  Level Indianapolis Center
Fri 11:53:11 PM 38.0869 -82.6944 250° West 359 413 40,000  Level Indianapolis Center
Fri 11:54:12 PM 38.0533 -82.8133 250° West 359 413 40,000  Level Indianapolis Center
Fri 11:55:13 PM 38.0197 -82.9306 250° West 357 411 40,000  Level Indianapolis Center
Fri 11:56:13 PM 37.9719 -83.0394 241° Southwest 356 410 40,000 -347 Level Indianapolis Center
Fri 11:57:14 PM 37.9094 -83.1611 237° Southwest 355 409 39,300 -787 Descending Indianapolis Center
Fri 11:58:15 PM 37.8567 -83.2658 237° Southwest 354 407 38,400 -885 Descending Indianapolis Center
Fri 11:59:16 PM 37.8025 -83.3714 237° Southwest 356 410 37,500 -934 Descending Indianapolis Center
Sat 12:00:17 AM 37.7494 -83.4733 237° Southwest 352 405 36,500 -744 Descending Indianapolis Center
Sat 12:01:17 AM 37.6967 -83.5742 237° Southwest 346 398 36,000 -248 Descending Indianapolis Center
Sat 12:02:18 AM 37.6436 -83.6756 237° Southwest 347 399 36,000  Level Indianapolis Center
Sat 12:03:19 AM 37.5903 -83.7778 237° Southwest 349 402 36,000  Level Indianapolis Center
Sat 12:04:20 AM 37.5367 -83.8811 237° Southwest 350 403 36,000  Level Indianapolis Center
Sat 12:05:21 AM 37.4825 -83.9819 236° Southwest 349 402 36,000  Level Indianapolis Center
Sat 12:06:21 AM 37.4283 -84.0856 237° Southwest 353 406 36,000 -198 Level Indianapolis Center
Sat 12:07:22 AM 37.3750 -84.1872 237° Southwest 351 404 35,600 -689 Descending Indianapolis Center
Sat 12:08:23 AM 37.3236 -84.2831 236° Southwest 337 388 34,600 -984 Descending Indianapolis Center
Sat 12:09:24 AM 37.2731 -84.3786 236° Southwest 330 380 33,600 -992 Descending Indianapolis Center
Sat 12:10:24 AM 37.2219 -84.4761 237° Southwest 333 383 32,600 -1,091 Descending Indianapolis Center
Sat 12:11:25 AM 37.1633 -84.5875 237° Southwest 329 379 31,400 -1,082 Descending Indianapolis Center
Sat 12:12:26 AM 37.1125 -84.6789 235° Southwest 322 371 30,400 -1,033 Descending Indianapolis Center
Sat 12:13:27 AM 37.0639 -84.7683 236° Southwest 313 360 29,300 -984 Descending Indianapolis Center
Sat 12:14:28 AM 37.0197 -84.8517 236° Southwest 308 354 28,400 -942 Descending Indianapolis Center
Sat 12:15:28 AM 36.9717 -84.9381 235° Southwest 305 351 27,400 -992 Descending Indianapolis Center
Sat 12:16:29 AM 36.9261 -85.0239 236° Southwest 298 343 26,400 -984 Descending Indianapolis Center
Sat 12:17:30 AM 36.8847 -85.1136 240° Southwest 298 343 25,400 -992 Descending Indianapolis Center
Sat 12:18:30 AM 36.8442 -85.2011 240° Southwest 294 338 24,400 -992 Descending Indianapolis Center
Sat 12:19:31 AM 36.8042 -85.2875 240° Southwest 288 331 23,400 -984 Descending Indianapolis Center
Sat 12:20:32 AM 36.7639 -85.3731 240° Southwest 287 330 22,400 -866 Descending Indianapolis Center
Sat 12:21:08 AM 36.7319 -85.4356 237° Southwest 297 342 22,000 -250 Descending Memphis Center
Sat 12:22:08 AM 36.6978 -85.5153 242° Southwest 292 336 22,000  Level Memphis Center
Sat 12:23:08 AM 36.6511 -85.6058 237° Southwest 292 336 22,000  Level Memphis Center
Sat 12:24:08 AM 36.6106 -85.6911 239° Southwest 292 336 22,000 -900 Level Memphis Center
Sat 12:25:08 AM 36.5719 -85.7733 240° Southwest 286 329 20,200 -1,350 Descending Memphis Center
Sat 12:26:08 AM 36.5336 -85.8608 241° Southwest 286 329 19,300 -1,300 Descending Memphis Center
Sat 12:27:08 AM 36.4928 -85.9456 239° Southwest 292 336 17,600 -1,750 Descending Memphis Center
Sat 12:28:08 AM 36.4542 -86.0303 240° Southwest 287 330 15,800 -1,800 Descending Memphis Center
Sat 12:29:08 AM 36.4114 -86.1178 239° Southwest 292 336 14,000 -1,850 Descending Memphis Center
Sat 12:30:08 AM 36.3683 -86.2050 239° Southwest 292 336 12,100 -1,800 Descending Memphis Center
Sat 12:31:08 AM 36.3294 -86.2869 240° Southwest 292 336 10,400 -1,450 Descending Memphis Center
Sat 12:32:08 AM 36.2922 -86.3633 239° Southwest 277 319 9,200 -1,200 Descending Memphis Center
Sat 12:33:08 AM 36.2589 -86.4319 239° Southwest 266 306 8,000 -1,300 Descending Memphis Center
Sat 12:34:08 AM 36.2217 -86.5058 238° Southwest 260 299 6,600 -1,150 Descending Memphis Center
Sat 12:35:08 AM 36.1542 -86.5422 204° Southwest 254 292 5,700 -850 Descending Memphis Center
Sat 12:36:08 AM 36.0922 -86.5683 199° South 242 278 4,900 -750 Descending Memphis Center
Sat 12:37:08 AM 36.0344 -86.5889 196° South 221 254 4,200 -700 Descending Memphis Center
Sat 12:38:08 AM 35.9958 -86.6217 214° Southwest 186 214 3,500 -714 Descending Memphis Center
Sat 12:39:56 AM 36.0333 -86.7000 301° West 153 176 2,200 -750 Descending Nashville TRACON
Sat 12:40:56 AM 36.0667 -86.6833 22° Northeast 140 161 1,400 -750 Descending Nashville TRACON
Sat 12:41:56 AM 36.1167 -86.6667 15° North 129 148 700 -700 Descending Nashville TRACON
Sat 12:43:00 AM 36.1245 -86.6782 198° South  Level Estimated
Sat 12:50:00 AM 36.1245 -86.6782 18° North  Level Estimated
Sat 12:51:00 AM 36.1245 -86.6782 18° North  Level Estimated
Sat 12:52:00 AM 36.1245 -86.6782 18° North  Level Estimated
Sat 12:53:00 AM 36.1245 -86.6782 18° North  Level Estimated
Sat 12:54:00 AM 36.1245 -86.6782 18° North  Level Estimated
Sat 12:55:00 AM 36.1245 -86.6782 18° North  Level Estimated
Sat 12:56:00 AM 36.1245 -86.6782 18° North  Level Estimated
Sat 12:57:00 AM 36.1245 -86.6782 18° North  Level Estimated
Sat 12:58:00 AM 36.1245 -86.6782 18° North  Level Estimated

Login

Don't have an account? Register now (free) for customized features, flight alerts, and more!